Terminal Aerodrome Forecast
Issued by NWS

Home | Current Version | Previous Version | Text Only | Print | Product List | Glossary On
Versions: 1 2 3 4 5 6 7 8 9 10 11 12 13 14 15 16 17 18 19
139
FTAK31 PAJN 250914 AAA
TAFAYA
TAF AMD
PAYA 250914Z 2509/2606 00000KT 3SM -RA BR BKN004 OVC009
     FM251100 27003KT 6SM BCFG SCT004 OVC008
     FM251800 27005KT P6SM SCT008 OVC025
      AMD LTD TO CLD VIS AND WIND=

USA.gov is the U.S. government's official web portal to all federal, state and local government web resources and services.